Strona główna
METAR-TAF:

METAR-TAF

Lotnisko :

Avord, Francja

Szerokość geograficzna: 47-03-12N, Długość geograficzna: 002-37-57E, wysokość: 177 m

Aktualna obserwacja pogody

Raport powstał 36 minut temu, godzina 10:30 UTC
Wiatr 13 kt od południowy wschód
Temperatura 9°C
Wilgotność 76%
Ciśnienie 1000 hPa
Widzialność 10 km lub więcej
Brak chmur poniżej 1500 m i brak chmur cumulonimbus

METAR: LFOA 221030Z AUTO 13013KT CAVOK 09/05 Q1000 BECMG 13015G25KT

czas: 12:06 (11:06 UTC)

Prognoza

Raport powstał 3 godziny i 6 minut temu, godzina 08:00 UTC
Prognoza ważna od 22 godzina 09 UTC do 23 godzina 09 UTC
Wiatr 10 kt od południowo-południowy wschód
Widzialność 10 km lub więcej
Brak chmur poniżej 1500 m i brak chmur cumulonimbus
Stopniowe zmiany
od 22 godzina 10 UTC do 22 godzina 12 UTC
Wiatr 15 kt od południowy wschód w porywach dochodzący do 25 kt
Przejściowo
od 22 godzina 21 UTC do 23 godzina 08 UTC
Widzialność: 3000 m
deszcz

TAF: LFOA 220800Z 2209/2309 16010KT CAVOK BECMG 2210/2212 13015G25KT TEMPO 2221/2308 3000 RA

Obserwacja i prognoza pogody dla ponad 4000 lotnisk (raport METAR i TAF).

Dostępne stacje oznaczono żółtymi i czerwonymi punktami na mapie.

Najedź kursorem aby zobaczyć nazwę stacji.

Kliknij aby zobaczyć obserwacje i prognozy pogody.

Aby zmienić mapę: kliknij na zielony przycisk z czarnym krzyżykiem, aby powiększyć; na zielony przycisk z myślnikiem, aby pomniejszyć; na zielone strzałki, aby przejść do map sąsiednich.


METAR-TAF: